createdAt,value
2023-05-13T00:00:13.931Z,14.50
2023-05-13T00:01:12.798Z,14.50
2023-05-13T00:02:13.929Z,14.40
2023-05-13T00:03:12.978Z,14.30
2023-05-13T00:04:13.214Z,14.30
2023-05-13T00:05:13.434Z,14.30
2023-05-13T00:06:13.302Z,13.90
2023-05-13T00:07:13.691Z,14.20
2023-05-13T00:08:13.566Z,13.90
2023-05-13T00:09:13.450Z,14.10
2023-05-13T00:10:13.377Z,14.20
2023-05-13T00:11:13.236Z,14.00
2023-05-13T00:12:13.104Z,14.10
2023-05-13T00:13:13.013Z,14.10
2023-05-13T00:14:12.967Z,14.20
2023-05-13T00:15:13.346Z,14.30
2023-05-13T00:16:13.294Z,14.30
2023-05-13T00:17:13.471Z,14.00
2023-05-13T00:18:13.569Z,14.00
2023-05-13T00:19:13.796Z,13.80
2023-05-13T00:20:12.947Z,13.80
2023-05-13T00:21:13.173Z,13.70
2023-05-13T00:22:12.951Z,13.70
2023-05-13T00:23:13.924Z,14.00
2023-05-13T00:24:13.564Z,14.10
2023-05-13T00:25:13.642Z,13.90
2023-05-13T00:26:13.531Z,14.10
2023-05-13T00:27:13.495Z,14.30
2023-05-13T00:28:13.602Z,14.40
2023-05-13T00:29:13.904Z,14.30
2023-05-13T00:30:12.978Z,14.40
2023-05-13T00:31:12.811Z,14.20
2023-05-13T00:32:13.654Z,14.40
2023-05-13T00:33:13.756Z,14.50
2023-05-13T00:34:13.819Z,14.70
2023-05-13T00:35:13.758Z,14.60
2023-05-13T00:36:13.653Z,14.50
2023-05-13T00:37:14.040Z,14.60
2023-05-13T00:38:12.881Z,14.60
2023-05-13T00:39:12.773Z,14.50
2023-05-13T00:40:13.813Z,14.40
2023-05-13T00:41:13.982Z,14.40
2023-05-13T00:42:12.965Z,14.40
2023-05-13T00:43:12.904Z,14.30
2023-05-13T00:44:14.557Z,14.20
2023-05-13T00:45:13.693Z,14.20
2023-05-13T00:46:13.455Z,14.10
2023-05-13T00:47:13.229Z,14.10
2023-05-13T00:48:13.019Z,14.20
2023-05-13T00:49:12.912Z,14.30
2023-05-13T00:50:12.870Z,14.30
2023-05-13T00:51:13.980Z,14.30
2023-05-13T00:52:12.789Z,14.40
2023-05-13T00:53:13.660Z,14.60
2023-05-13T00:54:13.573Z,14.60
2023-05-13T00:55:13.523Z,14.60
2023-05-13T00:56:13.712Z,14.50
2023-05-13T00:57:13.986Z,14.30
2023-05-13T00:58:12.900Z,14.20
2023-05-13T00:59:12.764Z,14.30
2023-05-13T01:00:13.964Z,14.30
2023-05-13T01:01:12.823Z,14.30
2023-05-13T01:02:13.764Z,14.20
2023-05-13T01:03:13.639Z,14.20
2023-05-13T01:04:13.438Z,14.20
2023-05-13T01:05:13.375Z,14.10
2023-05-13T01:06:13.550Z,14.00
2023-05-13T01:07:13.420Z,13.90
2023-05-13T01:08:13.380Z,13.90
2023-05-13T01:09:13.392Z,13.90
2023-05-13T01:10:13.329Z,14.00
2023-05-13T01:11:13.269Z,13.90
2023-05-13T01:12:13.587Z,13.90
2023-05-13T01:13:13.652Z,13.80
2023-05-13T01:14:13.709Z,13.80
2023-05-13T01:15:13.828Z,13.80
2023-05-13T01:16:13.788Z,13.90
2023-05-13T01:17:13.912Z,13.80
2023-05-13T01:18:13.010Z,13.80
2023-05-13T01:19:13.000Z,13.70
2023-05-13T01:20:13.272Z,13.80
2023-05-13T01:21:13.076Z,13.80
2023-05-13T01:22:18.000Z,13.90
2023-05-13T01:23:12.992Z,13.80
2023-05-13T01:24:12.891Z,13.90
2023-05-13T01:25:12.720Z,14.00
2023-05-13T01:26:13.787Z,14.00
2023-05-13T01:27:13.697Z,13.90
2023-05-13T01:28:13.769Z,13.90
2023-05-13T01:29:13.793Z,13.90
2023-05-13T01:30:13.774Z,14.00
2023-05-13T01:31:13.699Z,14.00
2023-05-13T01:32:13.698Z,13.90
2023-05-13T01:33:13.700Z,13.90
2023-05-13T01:34:13.531Z,13.80
2023-05-13T01:35:13.569Z,13.90
2023-05-13T01:36:13.339Z,13.90
2023-05-13T01:37:13.192Z,14.00
2023-05-13T01:38:13.180Z,13.80
2023-05-13T01:39:13.115Z,14.00
2023-05-13T01:40:24.102Z,13.90
2023-05-13T01:41:13.826Z,13.90
2023-05-13T01:42:13.577Z,13.90
2023-05-13T01:43:13.455Z,13.80
2023-05-13T01:44:13.204Z,13.70
2023-05-13T01:45:13.147Z,13.60
2023-05-13T01:46:13.138Z,13.60
2023-05-13T01:47:13.008Z,13.50
2023-05-13T01:48:12.994Z,13.50
2023-05-13T01:49:12.888Z,13.40
2023-05-13T01:50:12.778Z,13.40
2023-05-13T01:51:13.759Z,13.30
2023-05-13T01:52:13.906Z,13.20
2023-05-13T01:53:12.828Z,13.20
2023-05-13T01:54:13.945Z,13.10
2023-05-13T01:55:12.931Z,13.10
2023-05-13T01:56:12.770Z,13.10
2023-05-13T01:57:13.731Z,12.90
2023-05-13T01:58:13.593Z,12.60
2023-05-13T01:59:13.567Z,12.70
2023-05-13T02:00:13.451Z,12.90
2023-05-13T02:01:13.607Z,12.90
2023-05-13T02:02:13.508Z,12.80
2023-05-13T02:03:13.482Z,12.90
2023-05-13T02:04:13.421Z,12.80
2023-05-13T02:05:13.506Z,12.80
2023-05-13T02:06:13.305Z,12.90
2023-05-13T02:07:13.688Z,13.00
2023-05-13T02:08:13.623Z,13.00
2023-05-13T02:09:13.660Z,13.00
2023-05-13T02:10:13.515Z,13.00
2023-05-13T02:11:13.432Z,13.00
2023-05-13T02:12:13.228Z,13.10
2023-05-13T02:13:13.267Z,13.10
2023-05-13T02:14:13.226Z,13.10
2023-05-13T02:15:13.163Z,12.90
2023-05-13T02:16:13.615Z,13.00
2023-05-13T02:17:13.487Z,12.90
2023-05-13T02:18:13.545Z,12.90
2023-05-13T02:19:13.549Z,13.00
2023-05-13T02:20:13.402Z,13.20
2023-05-13T02:21:13.430Z,13.20
2023-05-13T02:22:13.163Z,13.30
2023-05-13T02:23:13.104Z,13.20
2023-05-13T02:24:13.237Z,13.30
2023-05-13T02:25:13.025Z,13.30
2023-05-13T02:26:13.037Z,13.30
2023-05-13T02:27:13.190Z,13.20
2023-05-13T02:28:13.013Z,13.00
2023-05-13T02:29:12.905Z,13.00
2023-05-13T02:30:12.822Z,13.20
2023-05-13T02:31:13.740Z,13.20
2023-05-13T02:32:13.943Z,13.20
2023-05-13T02:33:13.002Z,13.10
2023-05-13T02:34:12.847Z,13.10
2023-05-13T02:35:13.683Z,13.30
2023-05-13T02:36:13.754Z,13.10
2023-05-13T02:37:14.232Z,13.10
2023-05-13T02:38:13.498Z,13.30
2023-05-13T02:39:13.919Z,13.40
2023-05-13T02:40:12.848Z,13.40
2023-05-13T02:41:14.166Z,13.60
2023-05-13T02:42:13.027Z,13.60
2023-05-13T02:43:13.094Z,13.50
2023-05-13T02:44:12.893Z,13.70
2023-05-13T02:45:13.729Z,13.80
2023-05-13T02:46:13.569Z,13.50
2023-05-13T02:47:13.434Z,13.70
2023-05-13T02:48:13.290Z,13.80
2023-05-13T02:49:13.314Z,13.70
2023-05-13T02:50:13.481Z,13.60
2023-05-13T02:51:13.416Z,13.60
2023-05-13T02:52:13.362Z,13.50
2023-05-13T02:53:13.259Z,13.60
2023-05-13T02:54:13.111Z,13.70
2023-05-13T02:55:12.981Z,13.60
2023-05-13T02:56:12.844Z,13.50
2023-05-13T02:57:13.689Z,13.60
2023-05-13T02:58:13.515Z,13.50
2023-05-13T02:59:13.295Z,13.60
2023-05-13T03:00:13.328Z,13.50
2023-05-13T03:01:13.208Z,13.40
2023-05-13T03:02:13.388Z,13.10
2023-05-13T03:03:13.395Z,13.10
2023-05-13T03:04:13.262Z,13.10
2023-05-13T03:05:13.462Z,13.30
2023-05-13T03:06:13.361Z,13.40
2023-05-13T03:07:13.299Z,13.30
2023-05-13T03:08:14.642Z,13.30
2023-05-13T03:09:13.532Z,13.50
2023-05-13T03:10:13.387Z,13.60
2023-05-13T03:11:13.424Z,13.50
2023-05-13T03:12:13.325Z,13.10
2023-05-13T03:13:13.242Z,13.10
2023-05-13T03:14:13.358Z,13.20
2023-05-13T03:15:13.243Z,13.10
2023-05-13T03:16:13.170Z,13.10
2023-05-13T03:17:13.019Z,13.00
2023-05-13T03:18:12.884Z,12.90
2023-05-13T03:19:12.865Z,12.90
2023-05-13T03:20:12.850Z,12.80
2023-05-13T03:21:13.751Z,13.00
2023-05-13T03:22:13.801Z,12.90
2023-05-13T03:23:13.843Z,12.90
2023-05-13T03:24:13.681Z,12.70
2023-05-13T03:25:13.555Z,12.70
2023-05-13T03:26:13.394Z,12.50
2023-05-13T03:27:13.240Z,12.30
2023-05-13T03:28:13.020Z,12.50
2023-05-13T03:29:12.791Z,12.40
2023-05-13T03:30:13.692Z,12.60
2023-05-13T03:31:13.584Z,12.60
2023-05-13T03:32:13.451Z,12.60
2023-05-13T03:33:13.278Z,12.70
2023-05-13T03:34:13.460Z,12.60
2023-05-13T03:35:13.474Z,12.60
2023-05-13T03:36:13.358Z,12.60
2023-05-13T03:37:13.187Z,12.60
2023-05-13T03:38:13.031Z,12.60
2023-05-13T03:39:12.775Z,12.60
2023-05-13T03:40:13.606Z,12.50
2023-05-13T03:41:13.696Z,12.40
2023-05-13T03:42:13.616Z,12.40
2023-05-13T03:43:13.437Z,12.20
2023-05-13T03:44:13.526Z,12.20
2023-05-13T03:45:13.613Z,12.20
2023-05-13T03:46:13.427Z,12.20
2023-05-13T03:47:13.581Z,12.20
2023-05-13T03:48:13.395Z,12.10
2023-05-13T03:49:13.224Z,12.10
2023-05-13T03:50:13.421Z,12.10
2023-05-13T03:51:13.388Z,12.10
2023-05-13T03:52:13.196Z,12.00
2023-05-13T03:53:13.189Z,12.10
2023-05-13T03:54:13.057Z,12.10
2023-05-13T03:55:12.923Z,12.10
2023-05-13T03:56:13.074Z,12.00
2023-05-13T03:57:12.947Z,12.10
2023-05-13T03:58:12.776Z,12.30
2023-05-13T03:59:13.951Z,12.30
2023-05-13T04:00:12.858Z,12.30
2023-05-13T04:01:13.682Z,12.40
2023-05-13T04:02:13.898Z,12.30
2023-05-13T04:03:12.909Z,12.40
2023-05-13T04:04:12.947Z,12.30
2023-05-13T04:05:13.188Z,12.30
2023-05-13T04:06:13.403Z,12.40
2023-05-13T04:07:13.429Z,12.40
2023-05-13T04:08:13.405Z,12.20
2023-05-13T04:09:13.293Z,11.90
2023-05-13T04:10:15.228Z,11.90
2023-05-13T04:11:13.728Z,12.20
2023-05-13T04:12:13.584Z,12.50
2023-05-13T04:13:13.622Z,12.50
2023-05-13T04:14:13.466Z,12.60
2023-05-13T04:15:13.395Z,12.60
2023-05-13T04:16:14.014Z,12.40
2023-05-13T04:17:13.085Z,12.50
2023-05-13T04:18:13.079Z,12.70
2023-05-13T04:19:13.279Z,12.60
2023-05-13T04:20:13.364Z,12.60
2023-05-13T04:21:13.310Z,12.70
2023-05-13T04:22:13.465Z,12.60
2023-05-13T04:23:13.525Z,12.70
2023-05-13T04:24:13.241Z,12.80
2023-05-13T04:25:13.300Z,12.80
2023-05-13T04:26:13.178Z,12.90
2023-05-13T04:27:13.196Z,12.90
2023-05-13T04:28:13.297Z,12.90
2023-05-13T04:29:13.091Z,12.80
2023-05-13T04:30:13.169Z,12.90
2023-05-13T04:31:13.011Z,12.90
2023-05-13T04:32:13.224Z,12.90
2023-05-13T04:33:13.074Z,13.10
2023-05-13T04:34:13.011Z,13.20
2023-05-13T04:35:12.952Z,13.10
2023-05-13T04:36:15.070Z,13.20
2023-05-13T04:37:13.227Z,13.20
2023-05-13T04:38:13.109Z,13.30
2023-05-13T04:39:13.066Z,13.20
2023-05-13T04:40:13.036Z,13.30
2023-05-13T04:41:13.030Z,13.20
2023-05-13T04:42:12.924Z,13.20
2023-05-13T04:43:13.018Z,13.20
2023-05-13T04:44:12.788Z,13.20
2023-05-13T04:45:13.541Z,13.20
2023-05-13T04:46:13.459Z,13.20
2023-05-13T04:47:13.292Z,13.20
2023-05-13T04:48:13.598Z,13.20
2023-05-13T04:49:13.682Z,13.10
2023-05-13T04:50:13.047Z,13.30
2023-05-13T04:51:13.561Z,13.40
2023-05-13T04:52:13.399Z,13.40
2023-05-13T04:53:13.229Z,13.50
2023-05-13T04:54:13.107Z,13.60
2023-05-13T04:55:12.941Z,13.60
2023-05-13T04:56:12.999Z,13.60
2023-05-13T04:57:13.249Z,13.60
2023-05-13T04:58:13.094Z,13.70
2023-05-13T04:59:12.826Z,13.70
2023-05-13T05:00:13.963Z,13.70
2023-05-13T05:01:12.948Z,13.70
2023-05-13T05:02:12.736Z,13.80
2023-05-13T05:03:13.783Z,13.80
2023-05-13T05:04:13.987Z,13.80
2023-05-13T05:05:12.836Z,13.90
2023-05-13T05:06:13.696Z,13.90
2023-05-13T05:07:13.693Z,13.90
2023-05-13T05:08:13.752Z,13.90
2023-05-13T05:09:13.582Z,13.90
2023-05-13T05:10:13.550Z,13.70
2023-05-13T05:11:13.650Z,13.70
2023-05-13T05:12:13.527Z,13.60
2023-05-13T05:13:13.403Z,13.60
2023-05-13T05:14:13.303Z,13.60
2023-05-13T05:15:13.128Z,13.50
2023-05-13T05:16:12.958Z,13.50
2023-05-13T05:17:12.843Z,13.30
2023-05-13T05:18:14.077Z,13.40
2023-05-13T05:19:13.012Z,13.30
2023-05-13T05:20:13.577Z,12.90
2023-05-13T05:21:13.767Z,12.80
2023-05-13T05:22:13.730Z,13.10
2023-05-13T05:23:13.764Z,13.10
2023-05-13T05:24:13.932Z,13.10
2023-05-13T05:25:12.858Z,13.20
2023-05-13T05:26:13.679Z,13.20
2023-05-13T05:27:13.566Z,13.30
2023-05-13T05:28:13.700Z,13.30
2023-05-13T05:29:13.969Z,13.30
2023-05-13T05:30:13.204Z,13.20
2023-05-13T05:31:13.066Z,13.30
2023-05-13T05:32:13.077Z,13.30
2023-05-13T05:33:13.499Z,13.20
2023-05-13T05:34:13.376Z,13.30
2023-05-13T05:35:13.284Z,13.40
2023-05-13T05:36:13.183Z,13.30
2023-05-13T05:37:13.015Z,13.00
2023-05-13T05:38:12.848Z,12.80
2023-05-13T05:39:13.609Z,12.70
2023-05-13T05:40:13.522Z,12.60
2023-05-13T05:41:13.414Z,12.80
2023-05-13T05:42:13.277Z,12.70
2023-05-13T05:43:13.236Z,12.80
2023-05-13T05:44:13.087Z,12.80
2023-05-13T05:45:13.056Z,12.70
2023-05-13T05:46:13.049Z,12.80
2023-05-13T05:47:13.136Z,13.40
2023-05-13T05:48:13.013Z,13.50
2023-05-13T05:49:12.943Z,13.60
2023-05-13T05:50:12.825Z,13.60
2023-05-13T05:51:13.668Z,13.40
2023-05-13T05:52:13.560Z,13.60
2023-05-13T05:53:13.335Z,13.60
2023-05-13T05:54:13.508Z,14.00
2023-05-13T05:55:13.571Z,14.10
2023-05-13T05:56:13.740Z,14.10
2023-05-13T05:57:13.552Z,14.20
2023-05-13T05:58:13.531Z,14.30
2023-05-13T05:59:13.278Z,14.20
2023-05-13T06:00:13.246Z,14.20
2023-05-13T06:01:13.028Z,14.10
2023-05-13T06:02:12.859Z,14.20
2023-05-13T06:03:13.957Z,14.30
2023-05-13T06:04:13.228Z,14.30
2023-05-13T06:05:13.402Z,14.30
2023-05-13T06:06:13.524Z,14.20
2023-05-13T06:07:13.561Z,14.10
2023-05-13T06:08:13.564Z,14.30
2023-05-13T06:09:13.935Z,14.30
2023-05-13T06:10:12.826Z,14.40
2023-05-13T06:11:13.698Z,14.20
2023-05-13T06:12:14.350Z,14.30
2023-05-13T06:13:13.603Z,14.30
2023-05-13T06:14:13.443Z,14.50
2023-05-13T06:15:13.375Z,14.60
2023-05-13T06:16:13.218Z,14.70
2023-05-13T06:17:13.264Z,14.60
2023-05-13T06:18:13.158Z,14.50
2023-05-13T06:19:13.108Z,14.40
2023-05-13T06:20:12.893Z,14.60
2023-05-13T06:21:12.709Z,14.70
2023-05-13T06:22:13.556Z,14.70
2023-05-13T06:23:13.481Z,14.20
2023-05-13T06:24:13.388Z,14.50
2023-05-13T06:25:13.684Z,14.20
2023-05-13T06:26:13.502Z,14.10
2023-05-13T06:27:13.416Z,14.30
2023-05-13T06:28:13.184Z,14.50
2023-05-13T06:29:12.920Z,14.40
2023-05-13T06:30:12.981Z,14.40
2023-05-13T06:31:12.953Z,14.80
2023-05-13T06:32:13.517Z,15.30
2023-05-13T06:33:13.413Z,15.70
2023-05-13T06:34:13.355Z,15.20
2023-05-13T06:35:13.308Z,15.40
2023-05-13T06:36:13.172Z,15.40
2023-05-13T06:37:13.195Z,15.60
2023-05-13T06:38:12.993Z,15.30
2023-05-13T06:39:12.910Z,14.90
2023-05-13T06:40:12.795Z,15.10
2023-05-13T06:41:13.789Z,14.80
2023-05-13T06:42:14.453Z,14.70
2023-05-13T06:43:13.437Z,15.00
2023-05-13T06:44:13.375Z,15.40
2023-05-13T06:45:13.725Z,15.50
2023-05-13T06:46:13.674Z,15.50
2023-05-13T06:47:14.006Z,15.60
2023-05-13T06:48:12.928Z,15.70
2023-05-13T06:49:12.882Z,15.30
2023-05-13T06:50:12.845Z,15.10
2023-05-13T06:51:13.986Z,15.80
2023-05-13T06:52:12.907Z,15.80
2023-05-13T06:53:12.727Z,15.40
2023-05-13T06:54:13.626Z,15.60
2023-05-13T06:55:13.805Z,16.20
2023-05-13T06:56:13.692Z,16.50
2023-05-13T06:57:13.844Z,16.60
2023-05-13T06:58:13.550Z,16.80
2023-05-13T06:59:13.436Z,16.40
2023-05-13T07:00:13.238Z,15.90
2023-05-13T07:01:13.242Z,16.10
2023-05-13T07:02:13.359Z,16.00
2023-05-13T07:03:13.710Z,16.30
2023-05-13T07:04:13.679Z,16.60
2023-05-13T07:05:13.478Z,16.80
2023-05-13T07:06:13.203Z,17.00
2023-05-13T07:07:13.125Z,17.20
2023-05-13T07:08:12.920Z,17.40
2023-05-13T07:09:12.710Z,17.20
2023-05-13T07:10:13.562Z,17.30
2023-05-13T07:11:13.448Z,17.40
2023-05-13T07:12:13.476Z,17.60
2023-05-13T07:13:13.350Z,17.60
2023-05-13T07:14:13.141Z,17.40
2023-05-13T07:15:12.995Z,17.70
2023-05-13T07:16:12.881Z,17.90
2023-05-13T07:17:13.897Z,17.00
2023-05-13T07:18:12.827Z,16.90
2023-05-13T07:19:13.677Z,17.10
2023-05-13T07:20:13.647Z,17.40
2023-05-13T07:21:13.491Z,17.30
2023-05-13T07:22:18.707Z,17.30
2023-05-13T07:23:13.608Z,17.20
2023-05-13T07:24:13.481Z,17.70
2023-05-13T07:25:13.524Z,17.20
2023-05-13T07:26:13.605Z,17.40
2023-05-13T07:27:13.733Z,17.80
2023-05-13T07:28:13.876Z,18.30
2023-05-13T07:29:14.023Z,17.80
2023-05-13T07:30:13.025Z,17.60
2023-05-13T07:31:13.116Z,17.80
2023-05-13T07:32:12.933Z,18.10
2023-05-13T07:33:12.992Z,18.30
2023-05-13T07:34:13.097Z,17.10
2023-05-13T07:35:13.108Z,16.90
2023-05-13T07:36:13.263Z,17.10
2023-05-13T07:37:13.056Z,16.90
2023-05-13T07:38:12.863Z,16.80
2023-05-13T07:39:13.645Z,16.90
2023-05-13T07:40:18.757Z,17.10
2023-05-13T07:41:13.620Z,17.10
2023-05-13T07:42:13.637Z,17.10
2023-05-13T07:43:13.490Z,17.30
2023-05-13T07:44:13.593Z,17.20
2023-05-13T07:45:13.425Z,17.00
2023-05-13T07:46:13.221Z,17.30
2023-05-13T07:47:13.734Z,18.00
2023-05-13T07:48:12.845Z,17.40
2023-05-13T07:49:12.685Z,17.10
2023-05-13T07:50:13.615Z,17.20
2023-05-13T07:51:13.597Z,17.50
2023-05-13T07:52:13.487Z,17.40
2023-05-13T07:53:13.415Z,17.60
2023-05-13T07:54:13.202Z,17.60
2023-05-13T07:55:13.042Z,17.70
2023-05-13T07:56:12.849Z,17.60
2023-05-13T07:57:13.877Z,17.90
2023-05-13T07:58:13.853Z,17.90
2023-05-13T07:59:14.116Z,18.00
2023-05-13T08:00:13.001Z,17.60
2023-05-13T08:01:13.054Z,18.10
2023-05-13T08:02:12.894Z,18.50
2023-05-13T08:03:13.831Z,18.60
2023-05-13T08:04:14.260Z,18.10
2023-05-13T08:05:13.509Z,18.10
2023-05-13T08:06:13.359Z,18.60
2023-05-13T08:07:13.148Z,19.20
2023-05-13T08:08:13.030Z,18.70
2023-05-13T08:09:13.248Z,18.40
2023-05-13T08:10:13.193Z,18.30
2023-05-13T08:11:13.998Z,17.90
2023-05-13T08:12:13.036Z,18.00
2023-05-13T08:13:13.154Z,18.40
2023-05-13T08:14:13.132Z,18.90
2023-05-13T08:15:14.103Z,18.80
2023-05-13T08:16:13.000Z,19.10
2023-05-13T08:17:12.870Z,19.30
2023-05-13T08:18:13.880Z,19.10
2023-05-13T08:19:13.755Z,18.50
2023-05-13T08:20:13.670Z,18.40
2023-05-13T08:21:13.758Z,18.50
2023-05-13T08:22:13.858Z,18.70
2023-05-13T08:23:13.814Z,18.90
2023-05-13T08:24:13.659Z,19.10
2023-05-13T08:25:13.706Z,19.50
2023-05-13T08:26:13.667Z,19.90
2023-05-13T08:27:13.475Z,20.10
2023-05-13T08:28:13.228Z,20.20
2023-05-13T08:29:18.298Z,19.30
2023-05-13T08:30:13.443Z,19.40
2023-05-13T08:31:13.290Z,19.40
2023-05-13T08:32:13.483Z,19.50
2023-05-13T08:33:13.325Z,19.20
2023-05-13T08:34:13.143Z,19.00
2023-05-13T08:35:13.140Z,19.10
2023-05-13T08:36:13.089Z,19.50
2023-05-13T08:37:13.346Z,20.40
2023-05-13T08:38:13.230Z,20.20
2023-05-13T08:39:13.317Z,19.70
2023-05-13T08:40:14.614Z,19.40
2023-05-13T08:41:13.736Z,19.70
2023-05-13T08:42:13.774Z,19.30
2023-05-13T08:43:13.891Z,19.50
2023-05-13T08:44:12.950Z,20.20
2023-05-13T08:45:12.814Z,20.60
2023-05-13T08:46:13.724Z,20.50
2023-05-13T08:47:13.524Z,20.00
2023-05-13T08:48:13.359Z,20.00
2023-05-13T08:49:13.295Z,20.10
2023-05-13T08:50:13.323Z,20.50
2023-05-13T08:51:13.102Z,20.90
2023-05-13T08:52:12.846Z,20.80
2023-05-13T08:53:13.848Z,20.40
2023-05-13T08:54:12.996Z,20.40
2023-05-13T08:55:12.950Z,20.50
2023-05-13T08:56:13.160Z,20.30
2023-05-13T08:57:13.031Z,20.80
2023-05-13T08:58:12.889Z,20.30
2023-05-13T08:59:12.961Z,20.80
2023-05-13T09:00:12.928Z,20.70
2023-05-13T09:01:12.860Z,20.30
2023-05-13T09:02:13.674Z,20.00
2023-05-13T09:03:13.545Z,20.60
2023-05-13T09:04:13.373Z,20.90
2023-05-13T09:05:13.364Z,20.80
2023-05-13T09:06:13.191Z,20.50
2023-05-13T09:07:13.057Z,20.80
2023-05-13T09:08:12.838Z,21.00
2023-05-13T09:09:12.841Z,20.50
2023-05-13T09:10:13.772Z,20.70
2023-05-13T09:11:13.758Z,21.30
2023-05-13T09:12:13.619Z,21.10
2023-05-13T09:13:13.479Z,21.20
2023-05-13T09:14:13.598Z,21.40
2023-05-13T09:15:13.738Z,21.10
2023-05-13T09:16:13.992Z,21.30
2023-05-13T09:17:13.178Z,22.10
2023-05-13T09:18:13.549Z,21.60
2023-05-13T09:19:13.818Z,22.10
2023-05-13T09:20:12.714Z,22.50
2023-05-13T09:21:13.609Z,23.00
2023-05-13T09:22:13.618Z,23.40
2023-05-13T09:23:13.540Z,22.50
2023-05-13T09:24:13.345Z,21.90
2023-05-13T09:25:13.417Z,21.50
2023-05-13T09:26:13.229Z,21.50
2023-05-13T09:27:13.319Z,22.00
2023-05-13T09:28:13.208Z,22.50
2023-05-13T09:29:13.100Z,22.80
2023-05-13T09:30:13.199Z,22.90
2023-05-13T09:31:13.156Z,22.80
2023-05-13T09:32:13.889Z,22.90
2023-05-13T09:33:12.829Z,23.20
2023-05-13T09:34:13.592Z,23.40
2023-05-13T09:35:13.644Z,23.20
2023-05-13T09:36:13.560Z,24.70
2023-05-13T09:37:13.739Z,25.10
2023-05-13T09:38:13.963Z,25.30
2023-05-13T09:39:13.146Z,25.80
2023-05-13T09:40:13.088Z,26.60
2023-05-13T09:41:12.912Z,25.90
2023-05-13T09:42:12.794Z,24.80
2023-05-13T09:43:14.114Z,24.10
2023-05-13T09:44:13.069Z,23.90
2023-05-13T09:45:12.948Z,24.10
2023-05-13T09:46:12.771Z,24.40
2023-05-13T09:47:13.552Z,24.60
2023-05-13T09:48:13.537Z,24.20
2023-05-13T09:49:13.315Z,23.80
2023-05-13T09:50:13.109Z,25.20
2023-05-13T09:51:13.672Z,26.30
2023-05-13T09:52:13.475Z,24.90
2023-05-13T09:53:13.478Z,24.50
2023-05-13T09:54:13.286Z,24.00
2023-05-13T09:55:13.121Z,24.40
2023-05-13T09:56:12.902Z,23.60
2023-05-13T09:57:12.790Z,24.50
2023-05-13T09:58:13.793Z,24.30
2023-05-13T09:59:13.793Z,24.00
2023-05-13T10:01:00.115Z,23.00
2023-05-13T10:01:12.268Z,22.80
2023-05-13T10:02:13.153Z,23.90
2023-05-13T10:03:13.447Z,23.90
2023-05-13T10:04:13.609Z,24.20
2023-05-13T10:05:13.626Z,23.30
2023-05-13T10:06:13.631Z,23.00
2023-05-13T10:07:13.662Z,22.70
2023-05-13T10:08:13.669Z,23.00
2023-05-13T10:09:13.679Z,23.80
2023-05-13T10:10:14.751Z,24.30
2023-05-13T10:11:14.901Z,24.20
2023-05-13T10:12:13.466Z,23.20
2023-05-13T10:13:13.291Z,23.20
2023-05-13T10:14:13.301Z,23.10
2023-05-13T10:15:18.325Z,22.40
2023-05-13T10:16:13.411Z,23.50
2023-05-13T10:17:13.430Z,23.40
2023-05-13T10:18:13.256Z,24.40
2023-05-13T10:19:13.486Z,23.30
2023-05-13T10:20:13.567Z,23.10
2023-05-13T10:21:13.297Z,23.70
2023-05-13T10:22:13.438Z,23.70
2023-05-13T10:23:13.392Z,24.40
2023-05-13T10:24:18.313Z,24.70
2023-05-13T10:25:13.274Z,24.90
2023-05-13T10:26:12.984Z,24.10
2023-05-13T10:27:12.857Z,25.80
2023-05-13T10:28:13.781Z,25.10
2023-05-13T10:29:13.603Z,24.90
2023-05-13T10:30:13.491Z,25.80
2023-05-13T10:31:13.369Z,26.00
2023-05-13T10:32:13.618Z,24.90
2023-05-13T10:33:36.968Z,25.00
2023-05-13T10:34:13.776Z,25.00
2023-05-13T10:35:13.605Z,24.20
2023-05-13T10:36:13.654Z,25.00
2023-05-13T10:37:13.732Z,24.00
2023-05-13T10:39:13.511Z,24.10
2023-05-13T10:40:13.851Z,23.90
2023-05-13T10:41:33.487Z,25.10
2023-05-13T10:42:13.604Z,24.50
2023-05-13T10:43:13.657Z,24.20
2023-05-13T10:44:13.445Z,23.90
2023-05-13T10:45:36.956Z,25.60
2023-05-13T10:46:13.093Z,25.90
2023-05-13T10:47:13.016Z,25.60
2023-05-13T10:48:13.200Z,25.40
2023-05-13T10:49:13.788Z,25.60
2023-05-13T10:50:13.615Z,24.90
2023-05-13T10:51:13.852Z,26.50
2023-05-13T10:52:13.644Z,26.00
2023-05-13T10:53:13.518Z,25.20
2023-05-13T10:54:13.361Z,25.50
2023-05-13T10:55:13.172Z,25.30
2023-05-13T10:56:13.208Z,26.70
2023-05-13T10:57:18.460Z,25.10
2023-05-13T10:58:13.430Z,23.70
2023-05-13T10:59:18.504Z,24.30
2023-05-13T11:00:17.454Z,24.70
2023-05-13T11:01:14.082Z,24.80
2023-05-13T11:02:15.757Z,25.70
2023-05-13T11:03:13.771Z,25.70
2023-05-13T11:04:12.838Z,25.90
2023-05-13T11:05:12.738Z,26.80
2023-05-13T11:06:13.480Z,26.00
2023-05-13T11:07:13.431Z,24.80
2023-05-13T11:08:13.533Z,24.60
2023-05-13T11:09:13.573Z,25.80
2023-05-13T11:10:13.515Z,25.20
2023-05-13T11:11:13.317Z,26.30
2023-05-13T11:12:13.108Z,26.30
2023-05-13T11:13:13.215Z,26.30
2023-05-13T11:14:13.222Z,25.30
2023-05-13T11:15:13.581Z,25.10
2023-05-13T11:16:13.394Z,26.00
2023-05-13T11:17:13.207Z,25.60
2023-05-13T11:18:12.994Z,25.30
2023-05-13T11:19:13.075Z,24.90
2023-05-13T11:20:12.990Z,24.50
2023-05-13T11:21:12.818Z,24.80
2023-05-13T11:22:13.694Z,25.50
2023-05-13T11:23:14.702Z,25.20
2023-05-13T11:24:13.457Z,24.90
2023-05-13T11:25:13.273Z,24.50
2023-05-13T11:26:13.076Z,24.50
2023-05-13T11:27:12.927Z,25.10
2023-05-13T11:28:12.973Z,25.40
2023-05-13T11:29:12.865Z,25.80
2023-05-13T11:30:13.744Z,24.40
2023-05-13T11:31:13.855Z,26.00
2023-05-13T11:32:12.731Z,25.80
2023-05-13T11:33:13.653Z,25.10
2023-05-13T11:34:13.542Z,25.20
2023-05-13T11:35:13.338Z,24.00
2023-05-13T11:36:13.313Z,25.20
2023-05-13T11:37:13.437Z,26.20
2023-05-13T11:38:13.457Z,25.30
2023-05-13T11:39:13.250Z,24.40
2023-05-13T11:40:13.118Z,24.20
2023-05-13T11:41:12.974Z,24.70
2023-05-13T11:42:12.866Z,26.30
2023-05-13T11:43:13.790Z,26.50
2023-05-13T11:44:14.276Z,26.40
2023-05-13T11:45:13.245Z,26.20
2023-05-13T11:46:13.225Z,26.40
2023-05-13T11:47:13.117Z,26.80
2023-05-13T11:48:12.994Z,27.40
2023-05-13T11:49:12.855Z,27.50
2023-05-13T11:50:13.877Z,26.70
2023-05-13T11:51:13.660Z,26.20
2023-05-13T11:52:13.489Z,26.50
2023-05-13T11:53:13.284Z,26.80
2023-05-13T11:54:13.115Z,27.70
2023-05-13T11:55:12.914Z,27.40
2023-05-13T11:56:12.805Z,27.50
2023-05-13T11:57:14.009Z,27.00
2023-05-13T11:58:13.227Z,27.20
2023-05-13T11:59:13.042Z,27.60
2023-05-13T12:00:12.941Z,26.20
2023-05-13T12:01:12.973Z,25.00
2023-05-13T12:02:12.903Z,25.40
2023-05-13T12:03:12.900Z,26.70
2023-05-13T12:04:13.003Z,26.40
2023-05-13T12:05:13.058Z,26.60
2023-05-13T12:06:13.136Z,25.50
2023-05-13T12:07:13.054Z,25.80
2023-05-13T12:08:12.968Z,26.50
2023-05-13T12:09:12.861Z,26.30
2023-05-13T12:10:13.047Z,26.40
2023-05-13T12:11:13.118Z,26.50
2023-05-13T12:12:12.976Z,25.90
2023-05-13T12:13:13.620Z,26.70
2023-05-13T12:14:13.554Z,27.60
2023-05-13T12:15:13.344Z,26.40
2023-05-13T12:16:13.424Z,27.10
2023-05-13T12:17:13.648Z,26.30
2023-05-13T12:18:13.507Z,24.90
2023-05-13T12:19:13.419Z,24.10
2023-05-13T12:20:13.428Z,23.50
2023-05-13T12:21:13.447Z,24.10
2023-05-13T12:22:13.368Z,25.30
2023-05-13T12:23:13.193Z,26.00
2023-05-13T12:24:13.037Z,27.30
2023-05-13T12:25:12.837Z,27.70
2023-05-13T12:26:14.621Z,28.20
2023-05-13T12:27:13.529Z,28.50
2023-05-13T12:28:13.554Z,29.70
2023-05-13T12:29:13.789Z,28.70
2023-05-13T12:30:14.001Z,28.10
2023-05-13T12:31:13.103Z,30.00
2023-05-13T12:32:12.991Z,28.30
2023-05-13T12:33:13.136Z,28.20
2023-05-13T12:34:12.961Z,26.00
2023-05-13T12:35:12.922Z,25.60
2023-05-13T12:36:12.924Z,25.40
2023-05-13T12:37:13.039Z,26.10
2023-05-13T12:38:12.957Z,25.90
2023-05-13T12:39:12.947Z,25.40
2023-05-13T12:40:12.939Z,25.70
2023-05-13T12:41:12.868Z,25.60
2023-05-13T12:42:13.772Z,24.20
2023-05-13T12:43:13.600Z,23.60
2023-05-13T12:44:13.701Z,24.60
2023-05-13T12:45:13.512Z,24.40
2023-05-13T12:46:13.263Z,23.70
2023-05-13T12:47:13.049Z,23.60
2023-05-13T12:48:12.851Z,23.80
2023-05-13T12:49:13.860Z,24.10
2023-05-13T12:50:13.889Z,24.50
2023-05-13T12:51:12.779Z,24.20
2023-05-13T12:52:13.833Z,25.50
2023-05-13T12:53:13.784Z,26.20